Jumirim, Brazil
Current Conditions -  °F | °C
As of 7:00 PM on Tuesday 21 Oct 2014 (Local Time) from SBKP Reporting Station
Clear Clear  
Wind Chill: 68°   Ceiling: Unl
Heat Index: 68°   Visibility: 6mi
Dew Point: 52°   Wind: 22mph
Humidity: 56%   Direction: 140°SE
Pressure: 30.09"   Gusts: NA
Location:  23.1°S, 47.8°W
Report Text: SBKP 212100Z 14019KT CAVOK 20/11 Q1019 WS R15
Loading
Personal Weather Stations






























Interactive Weather Map
Tropical Storm Tracking
New forecast layout! Learn more

10-Day Weather Forecast

Advertisements
Track Severe Weather on mobile